Terminal Aerodrome Forecast
Issued by NWS Charleston, WV

Current Version | Previous Version | Graphics & Text | Print | Product List | Glossary On
Versions: 1 2 3 4 5 6 7 8 9 10 11 12 13 14 15 16 17 18 19 20 21 22 23
763
FTUS41 KRLX 240901 AAA
TAFCRW
TAF AMD
KCRW 240901Z 2409/2506 00000KT 1/2SM FG SCT001
     FM241200 00000KT 3SM BR SCT001
     FM241300 24005KT P6SM FEW045=

USA.gov is the U.S. government's official web portal to all federal, state and local government web resources and services.